sensor_id;sensor_type;location;lat;lon;timestamp;pressure;altitude;pressure_sealevel;temperature;humidity
61119;BME280;51448;51.660;5.824;2022-09-09T00:04:30;100693.06;;;14.66;93.75
61119;BME280;51448;51.660;5.824;2022-09-09T00:10:09;100685.56;;;14.57;94.29
61119;BME280;51448;51.660;5.824;2022-09-09T00:12:57;100681.31;;;14.53;94.53
61119;BME280;51448;51.660;5.824;2022-09-09T00:15:38;100687.63;;;14.50;94.17
61119;BME280;51448;51.660;5.824;2022-09-09T00:18:20;100682.44;;;14.47;94.54
61119;BME280;51448;51.660;5.824;2022-09-09T00:21:06;100686.03;;;14.46;94.04
61119;BME280;51448;51.660;5.824;2022-09-09T00:23:47;100686.09;;;14.44;94.28
61119;BME280;51448;51.660;5.824;2022-09-09T00:26:41;100676.44;;;14.43;94.72
61119;BME280;51448;51.660;5.824;2022-09-09T00:31:39;100678.47;;;14.38;94.20
61119;BME280;51448;51.660;5.824;2022-09-09T00:36:50;100684.94;;;14.31;95.15
61119;BME280;51448;51.660;5.824;2022-09-09T00:39:41;100677.09;;;14.29;94.09
61119;BME280;51448;51.660;5.824;2022-09-09T00:42:15;100679.81;;;14.28;95.13
61119;BME280;51448;51.660;5.824;2022-09-09T00:48:07;100672.22;;;14.20;94.52
61119;BME280;51448;51.660;5.824;2022-09-09T00:50:57;100678.50;;;14.18;95.03
61119;BME280;51448;51.660;5.824;2022-09-09T00:56:35;100678.63;;;14.15;94.87
61119;BME280;51448;51.660;5.824;2022-09-09T00:59:34;100669.91;;;14.13;95.63
61119;BME280;51448;51.660;5.824;2022-09-09T01:19:07;100657.53;;;13.94;95.14
61119;BME280;51448;51.660;5.824;2022-09-09T01:21:55;100651.31;;;13.95;95.56
61119;BME280;51448;51.660;5.824;2022-09-09T01:27:59;100647.09;;;13.91;96.56
61119;BME280;51448;51.660;5.824;2022-09-09T01:30:31;100654.09;;;13.92;96.48
61119;BME280;51448;51.660;5.824;2022-09-09T01:33:01;100654.97;;;13.93;96.34
61119;BME280;51448;51.660;5.824;2022-09-09T01:35:52;100656.59;;;13.95;96.83
61119;BME280;51448;51.660;5.824;2022-09-09T01:38:29;100655.75;;;13.95;97.30
61119;BME280;51448;51.660;5.824;2022-09-09T01:41:00;100658.31;;;13.96;96.91
61119;BME280;51448;51.660;5.824;2022-09-09T01:43:38;100653.03;;;13.96;97.27
61119;BME280;51448;51.660;5.824;2022-09-09T01:46:05;100651.16;;;13.98;96.58
61119;BME280;51448;51.660;5.824;2022-09-09T01:48:35;100654.59;;;14.00;97.61
61119;BME280;51448;51.660;5.824;2022-09-09T01:51:09;100655.47;;;14.01;97.00
61119;BME280;51448;51.660;5.824;2022-09-09T01:53:41;100647.47;;;14.02;97.44
61119;BME280;51448;51.660;5.824;2022-09-09T01:56:34;100650.97;;;14.03;97.07
61119;BME280;51448;51.660;5.824;2022-09-09T02:02:11;100644.91;;;14.01;97.79
61119;BME280;51448;51.660;5.824;2022-09-09T02:05:17;100646.59;;;14.02;97.71
61119;BME280;51448;51.660;5.824;2022-09-09T02:07:52;100633.44;;;14.00;97.25
61119;BME280;51448;51.660;5.824;2022-09-09T02:13:44;100637.88;;;14.00;98.36
61119;BME280;51448;51.660;5.824;2022-09-09T02:16:30;100635.19;;;14.01;98.19
61119;BME280;51448;51.660;5.824;2022-09-09T02:19:20;100631.69;;;14.01;98.38
61119;BME280;51448;51.660;5.824;2022-09-09T02:22:00;100632.53;;;14.01;97.45
61119;BME280;51448;51.660;5.824;2022-09-09T02:24:33;100626.31;;;14.02;98.23
61119;BME280;51448;51.660;5.824;2022-09-09T02:27:22;100628.03;;;14.03;97.66
61119;BME280;51448;51.660;5.824;2022-09-09T02:29:51;100628.03;;;14.03;98.35
61119;BME280;51448;51.660;5.824;2022-09-09T02:32:35;100628.09;;;14.02;97.68
61119;BME280;51448;51.660;5.824;2022-09-09T02:35:12;100626.47;;;13.99;97.83
61119;BME280;51448;51.660;5.824;2022-09-09T02:37:45;100625.66;;;13.97;98.18
61119;BME280;51448;51.660;5.824;2022-09-09T02:40:17;100617.00;;;13.94;98.19
61119;BME280;51448;51.660;5.824;2022-09-09T02:42:49;100618.06;;;13.89;97.77
61119;BME280;51448;51.660;5.824;2022-09-09T02:45:20;100614.66;;;13.87;98.22
61119;BME280;51448;51.660;5.824;2022-09-09T02:48:26;100618.03;;;13.91;98.32
61119;BME280;51448;51.660;5.824;2022-09-09T02:51:14;100623.31;;;13.91;98.26
61119;BME280;51448;51.660;5.824;2022-09-09T02:54:08;100633.88;;;13.91;98.26
61119;BME280;51448;51.660;5.824;2022-09-09T02:56:49;100634.72;;;13.92;98.37
61119;BME280;51448;51.660;5.824;2022-09-09T02:59:26;100628.59;;;13.91;99.00
61119;BME280;51448;51.660;5.824;2022-09-09T03:01:55;100632.94;;;13.92;98.53
61119;BME280;51448;51.660;5.824;2022-09-09T03:04:24;100636.38;;;13.94;99.40
61119;BME280;51448;51.660;5.824;2022-09-09T03:06:52;100631.19;;;13.93;99.44
61119;BME280;51448;51.660;5.824;2022-09-09T03:09:20;100635.59;;;13.92;98.66
61119;BME280;51448;51.660;5.824;2022-09-09T03:11:50;100635.59;;;13.92;98.82
61119;BME280;51448;51.660;5.824;2022-09-09T03:14:19;100637.31;;;13.93;99.09
61119;BME280;51448;51.660;5.824;2022-09-09T03:16:48;100626.75;;;13.93;99.45
61119;BME280;51448;51.660;5.824;2022-09-09T03:19:16;100632.88;;;13.94;99.48
61119;BME280;51448;51.660;5.824;2022-09-09T03:21:45;100632.81;;;13.95;99.53
61119;BME280;51448;51.660;5.824;2022-09-09T03:24:13;100636.31;;;13.96;99.02
61119;BME280;51448;51.660;5.824;2022-09-09T03:26:41;100632.75;;;13.97;99.85
61119;BME280;51448;51.660;5.824;2022-09-09T03:29:14;100634.44;;;13.98;99.87
61119;BME280;51448;51.660;5.824;2022-09-09T03:31:43;100636.09;;;14.00;100.00
61119;BME280;51448;51.660;5.824;2022-09-09T03:34:11;100630.75;;;14.02;99.35
61119;BME280;51448;51.660;5.824;2022-09-09T03:36:40;100633.31;;;14.03;100.00
61119;BME280;51448;51.660;5.824;2022-09-09T03:39:08;100635.91;;;14.05;99.72
61119;BME280;51448;51.660;5.824;2022-09-09T03:41:36;100634.13;;;14.05;99.57
61119;BME280;51448;51.660;5.824;2022-09-09T03:44:05;100633.97;;;14.08;99.60
61119;BME280;51448;51.660;5.824;2022-09-09T03:46:37;100640.03;;;14.11;100.00
61119;BME280;51448;51.660;5.824;2022-09-09T03:49:05;100634.63;;;14.14;100.00
61119;BME280;51448;51.660;5.824;2022-09-09T03:51:32;100647.78;;;14.15;99.83
61119;BME280;51448;51.660;5.824;2022-09-09T03:54:04;100633.78;;;14.13;100.00
61119;BME280;51448;51.660;5.824;2022-09-09T03:56:35;100638.06;;;14.16;100.00
61119;BME280;51448;51.660;5.824;2022-09-09T03:59:03;100629.97;;;14.19;100.00
61119;BME280;51448;51.660;5.824;2022-09-09T04:01:31;100636.03;;;14.21;100.00
61119;BME280;51448;51.660;5.824;2022-09-09T04:04:00;100637.59;;;14.25;100.00
61119;BME280;51448;51.660;5.824;2022-09-09T04:06:29;100625.16;;;14.27;99.99
61119;BME280;51448;51.660;5.824;2022-09-09T04:08:58;100626.84;;;14.29;100.00
61119;BME280;51448;51.660;5.824;2022-09-09T04:11:26;100631.13;;;14.32;100.00
61119;BME280;51448;51.660;5.824;2022-09-09T04:13:57;100637.19;;;14.34;100.00
61119;BME280;51448;51.660;5.824;2022-09-09T04:16:24;100624.81;;;14.35;100.00
61119;BME280;51448;51.660;5.824;2022-09-09T04:18:53;100625.59;;;14.37;100.00
61119;BME280;51448;51.660;5.824;2022-09-09T04:21:20;100625.47;;;14.40;100.00
61119;BME280;51448;51.660;5.824;2022-09-09T04:23:48;100618.31;;;14.42;100.00
61119;BME280;51448;51.660;5.824;2022-09-09T04:26:16;100620.88;;;14.43;100.00
61119;BME280;51448;51.660;5.824;2022-09-09T04:28:44;100615.44;;;14.46;100.00
61119;BME280;51448;51.660;5.824;2022-09-09T04:31:20;100611.84;;;14.47;100.00
61119;BME280;51448;51.660;5.824;2022-09-09T04:33:53;100616.16;;;14.50;100.00
61119;BME280;51448;51.660;5.824;2022-09-09T04:36:22;100616.84;;;14.54;100.00
61119;BME280;51448;51.660;5.824;2022-09-09T04:38:53;100613.28;;;14.55;100.00
61119;BME280;51448;51.660;5.824;2022-09-09T04:41:21;100606.22;;;14.55;100.00
61119;BME280;51448;51.660;5.824;2022-09-09T04:43:51;100604.38;;;14.57;100.00
61119;BME280;51448;51.660;5.824;2022-09-09T04:46:21;100611.31;;;14.60;100.00
61119;BME280;51448;51.660;5.824;2022-09-09T04:48:50;100605.94;;;14.61;100.00
61119;BME280;51448;51.660;5.824;2022-09-09T04:51:19;100608.53;;;14.63;100.00
61119;BME280;51448;51.660;5.824;2022-09-09T04:53:48;100608.34;;;14.66;100.00
61119;BME280;51448;51.660;5.824;2022-09-09T04:56:19;100597.69;;;14.67;100.00
61119;BME280;51448;51.660;5.824;2022-09-09T04:58:57;100600.28;;;14.69;100.00
61119;BME280;51448;51.660;5.824;2022-09-09T05:01:36;100600.22;;;14.71;100.00
61119;BME280;51448;51.660;5.824;2022-09-09T05:04:05;100596.56;;;14.73;100.00
61119;BME280;51448;51.660;5.824;2022-09-09T05:06:34;100592.97;;;14.74;100.00
61119;BME280;51448;51.660;5.824;2022-09-09T05:09:04;100595.59;;;14.74;100.00
61119;BME280;51448;51.660;5.824;2022-09-09T05:11:32;100598.19;;;14.76;100.00
61119;BME280;51448;51.660;5.824;2022-09-09T05:14:20;100600.84;;;14.76;100.00
61119;BME280;51448;51.660;5.824;2022-09-09T05:16:47;100601.63;;;14.78;100.00
61119;BME280;51448;51.660;5.824;2022-09-09T05:19:16;100598.91;;;14.79;100.00
61119;BME280;51448;51.660;5.824;2022-09-09T05:21:49;100604.13;;;14.81;100.00
61119;BME280;51448;51.660;5.824;2022-09-09T05:24:22;100596.09;;;14.82;100.00
61119;BME280;51448;51.660;5.824;2022-09-09T05:26:53;100598.66;;;14.84;100.00
61119;BME280;51448;51.660;5.824;2022-09-09T05:29:20;100588.84;;;14.86;100.00
61119;BME280;51448;51.660;5.824;2022-09-09T05:31:48;100587.94;;;14.87;100.00
61119;BME280;51448;51.660;5.824;2022-09-09T05:34:20;100594.06;;;14.87;100.00
61119;BME280;51448;51.660;5.824;2022-09-09T05:36:49;100595.78;;;14.88;100.00
61119;BME280;51448;51.660;5.824;2022-09-09T05:39:17;100593.13;;;14.88;100.00
61119;BME280;51448;51.660;5.824;2022-09-09T05:41:45;100593.00;;;14.92;100.00
61119;BME280;51448;51.660;5.824;2022-09-09T05:44:13;100591.13;;;14.94;100.00
61119;BME280;51448;51.660;5.824;2022-09-09T05:46:40;100590.19;;;14.95;100.00
61119;BME280;51448;51.660;5.824;2022-09-09T05:49:08;100591.75;;;14.99;100.00
61119;BME280;51448;51.660;5.824;2022-09-09T05:51:39;100597.81;;;15.01;100.00
61119;BME280;51448;51.660;5.824;2022-09-09T05:54:10;100599.53;;;15.02;100.00
61119;BME280;51448;51.660;5.824;2022-09-09T05:56:42;100593.28;;;15.03;100.00
61119;BME280;51448;51.660;5.824;2022-09-09T05:59:13;100598.44;;;15.06;100.00
61119;BME280;51448;51.660;5.824;2022-09-09T06:01:42;100592.22;;;15.07;100.00
61119;BME280;51448;51.660;5.824;2022-09-09T06:04:18;100596.59;;;15.08;100.00
61119;BME280;51448;51.660;5.824;2022-09-09T06:06:46;100600.00;;;15.10;100.00
61119;BME280;51448;51.660;5.824;2022-09-09T06:09:17;100606.16;;;15.11;100.00
61119;BME280;51448;51.660;5.824;2022-09-09T06:11:45;100603.44;;;15.12;100.00
61119;BME280;51448;51.660;5.824;2022-09-09T06:14:14;100607.78;;;15.13;100.00
61119;BME280;51448;51.660;5.824;2022-09-09T06:16:45;100611.22;;;15.15;100.00
61119;BME280;51448;51.660;5.824;2022-09-09T06:19:25;100607.66;;;15.16;100.00
61119;BME280;51448;51.660;5.824;2022-09-09T06:21:56;100612.88;;;15.18;100.00
61119;BME280;51448;51.660;5.824;2022-09-09T06:24:23;100620.50;;;15.24;100.00
61119;BME280;51448;51.660;5.824;2022-09-09T06:26:51;100619.25;;;15.31;100.00
61119;BME280;51448;51.660;5.824;2022-09-09T06:29:23;100611.75;;;15.39;100.00
61119;BME280;51448;51.660;5.824;2022-09-09T06:31:52;100610.66;;;15.43;100.00
61119;BME280;51448;51.660;5.824;2022-09-09T06:34:23;100608.66;;;15.48;100.00
61119;BME280;51448;51.660;5.824;2022-09-09T06:36:54;100607.31;;;15.57;100.00
61119;BME280;51448;51.660;5.824;2022-09-09T06:39:23;100609.47;;;15.66;100.00
61119;BME280;51448;51.660;5.824;2022-09-09T06:42:01;100605.41;;;15.77;100.00
61119;BME280;51448;51.660;5.824;2022-09-09T06:44:52;100606.56;;;15.88;100.00
61119;BME280;51448;51.660;5.824;2022-09-09T06:47:57;100606.50;;;16.06;100.00
61119;BME280;51448;51.660;5.824;2022-09-09T06:50:24;100610.28;;;16.18;100.00
61119;BME280;51448;51.660;5.824;2022-09-09T06:52:53;100611.41;;;16.29;100.00
61119;BME280;51448;51.660;5.824;2022-09-09T06:55:21;100616.78;;;16.44;99.96
61119;BME280;51448;51.660;5.824;2022-09-09T06:57:49;100614.56;;;16.52;99.54
61119;BME280;51448;51.660;5.824;2022-09-09T07:00:35;100609.94;;;16.56;99.12
61119;BME280;51448;51.660;5.824;2022-09-09T07:06:27;100620.06;;;16.49;97.87
61119;BME280;51448;51.660;5.824;2022-09-09T07:09:18;100609.69;;;16.60;98.33
61119;BME280;51448;51.660;5.824;2022-09-09T07:11:50;100611.91;;;16.68;98.18
61119;BME280;51448;51.660;5.824;2022-09-09T07:14:25;100607.78;;;16.78;97.89
61119;BME280;51448;51.660;5.824;2022-09-09T07:17:09;100603.41;;;16.77;97.17
61119;BME280;51448;51.660;5.824;2022-09-09T07:19:43;100603.41;;;16.77;96.67
61119;BME280;51448;51.660;5.824;2022-09-09T07:22:10;100603.06;;;16.83;96.62
61119;BME280;51448;51.660;5.824;2022-09-09T07:24:41;100605.78;;;16.98;97.11
61119;BME280;51448;51.660;5.824;2022-09-09T07:27:09;100601.28;;;17.14;96.75
61119;BME280;51448;51.660;5.824;2022-09-09T07:29:38;100602.06;;;17.30;96.06
61119;BME280;51448;51.660;5.824;2022-09-09T07:32:06;100604.97;;;17.42;95.30
61119;BME280;51448;51.660;5.824;2022-09-09T07:34:36;100606.66;;;17.43;94.91
61119;BME280;51448;51.660;5.824;2022-09-09T07:37:14;100618.34;;;17.40;94.53
61119;BME280;51448;51.660;5.824;2022-09-09T07:39:44;100616.03;;;17.34;93.94
61119;BME280;51448;51.660;5.824;2022-09-09T07:42:12;100610.25;;;17.27;94.67
61119;BME280;51448;51.660;5.824;2022-09-09T07:44:41;100613.97;;;17.25;94.76
61119;BME280;51448;51.660;5.824;2022-09-09T07:47:15;100603.50;;;17.22;94.04
61119;BME280;51448;51.660;5.824;2022-09-09T07:49:47;100609.50;;;17.25;93.31
61119;BME280;51448;51.660;5.824;2022-09-09T07:52:21;100613.00;;;17.26;93.62
61119;BME280;51448;51.660;5.824;2022-09-09T07:54:53;100610.81;;;17.33;93.72
61119;BME280;51448;51.660;5.824;2022-09-09T07:57:21;100612.66;;;17.46;92.97
61119;BME280;51448;51.660;5.824;2022-09-09T07:59:51;100609.72;;;17.65;93.50
61119;BME280;51448;51.660;5.824;2022-09-09T08:02:19;100612.91;;;17.86;92.30
61119;BME280;51448;51.660;5.824;2022-09-09T08:04:47;100618.03;;;18.04;92.38
61119;BME280;51448;51.660;5.824;2022-09-09T08:07:17;100615.06;;;18.23;91.73
61119;BME280;51448;51.660;5.824;2022-09-09T08:09:50;100613.81;;;18.28;90.72
61119;BME280;51448;51.660;5.824;2022-09-09T08:12:24;100615.63;;;18.28;89.77
61119;BME280;51448;51.660;5.824;2022-09-09T08:14:53;100621.03;;;18.26;88.54
61119;BME280;51448;51.660;5.824;2022-09-09T08:17:24;100616.97;;;18.21;88.00
61119;BME280;51448;51.660;5.824;2022-09-09T08:19:52;100630.78;;;18.13;88.41
61119;BME280;51448;51.660;5.824;2022-09-09T08:22:25;100628.59;;;18.05;88.82
61119;BME280;51448;51.660;5.824;2022-09-09T08:24:54;100617.28;;;18.02;88.99
61119;BME280;51448;51.660;5.824;2022-09-09T08:27:23;100643.72;;;18.05;88.42
61119;BME280;51448;51.660;5.824;2022-09-09T08:29:53;100643.59;;;18.06;88.39
61119;BME280;51448;51.660;5.824;2022-09-09T08:32:22;100639.59;;;18.14;88.50
61119;BME280;51448;51.660;5.824;2022-09-09T08:34:50;100635.03;;;18.16;87.90
61119;BME280;51448;51.660;5.824;2022-09-09T08:37:23;100630.47;;;18.18;87.97
61119;BME280;51448;51.660;5.824;2022-09-09T08:39:51;100641.97;;;18.18;87.67
61119;BME280;51448;51.660;5.824;2022-09-09T08:45:23;100638.47;;;18.18;87.18
61119;BME280;51448;51.660;5.824;2022-09-09T08:48:08;100636.56;;;18.20;87.57
61119;BME280;51448;51.660;5.824;2022-09-09T08:50:40;100638.75;;;18.27;87.79
61119;BME280;51448;51.660;5.824;2022-09-09T08:53:28;100638.41;;;18.46;86.49
61119;BME280;51448;51.660;5.824;2022-09-09T08:56:12;100630.56;;;18.58;85.56
61119;BME280;51448;51.660;5.824;2022-09-09T08:58:52;100642.84;;;18.60;84.97
61119;BME280;51448;51.660;5.824;2022-09-09T09:01:45;100641.13;;;18.59;84.53
61119;BME280;51448;51.660;5.824;2022-09-09T09:04:45;100647.44;;;18.58;83.70
61119;BME280;51448;51.660;5.824;2022-09-09T09:10:49;100649.22;;;18.58;85.05
61119;BME280;51448;51.660;5.824;2022-09-09T09:16:33;100644.56;;;18.61;83.85
61119;BME280;51448;51.660;5.824;2022-09-09T09:19:05;100646.06;;;18.65;84.79
61119;BME280;51448;51.660;5.824;2022-09-09T09:25:26;100634.59;;;18.92;83.78
61119;BME280;51448;51.660;5.824;2022-09-09T09:28:24;100642.94;;;19.00;82.80
61119;BME280;51448;51.660;5.824;2022-09-09T09:31:25;100647.41;;;19.00;83.57
61119;BME280;51448;51.660;5.824;2022-09-09T09:33:55;100647.72;;;18.95;83.15
61119;BME280;51448;51.660;5.824;2022-09-09T09:37:31;100647.56;;;18.84;82.29
61119;BME280;51448;51.660;5.824;2022-09-09T09:40:59;100646.72;;;18.69;82.78
61119;BME280;51448;51.660;5.824;2022-09-09T09:43:36;100651.59;;;18.62;82.59
61119;BME280;51448;51.660;5.824;2022-09-09T09:46:20;100645.78;;;18.56;82.78
61119;BME280;51448;51.660;5.824;2022-09-09T09:48:58;100645.16;;;18.52;82.31
61119;BME280;51448;51.660;5.824;2022-09-09T09:51:30;100647.53;;;18.57;82.62
61119;BME280;51448;51.660;5.824;2022-09-09T09:54:17;100643.63;;;18.62;83.08
61119;BME280;51448;51.660;5.824;2022-09-09T09:57:12;100643.72;;;18.61;82.98
61119;BME280;51448;51.660;5.824;2022-09-09T09:59:45;100641.13;;;18.59;82.33
61119;BME280;51448;51.660;5.824;2022-09-09T10:02:40;100641.97;;;18.60;82.73
61119;BME280;51448;51.660;5.824;2022-09-09T10:05:45;100651.88;;;18.58;82.23
61119;BME280;51448;51.660;5.824;2022-09-09T10:08:46;100651.03;;;18.57;82.74
61119;BME280;51448;51.660;5.824;2022-09-09T10:14:21;100646.78;;;18.55;81.66
61119;BME280;51448;51.660;5.824;2022-09-09T10:19:42;100648.59;;;18.54;82.01
61119;BME280;51448;51.660;5.824;2022-09-09T10:22:28;100652.94;;;18.55;82.02
61119;BME280;51448;51.660;5.824;2022-09-09T10:25:20;100642.66;;;18.63;82.46
61119;BME280;51448;51.660;5.824;2022-09-09T10:28:10;100648.03;;;18.76;81.93
61119;BME280;51448;51.660;5.824;2022-09-09T10:31:19;100641.38;;;18.83;82.08
61119;BME280;51448;51.660;5.824;2022-09-09T10:36:58;100661.53;;;18.87;81.35
61119;BME280;51448;51.660;5.824;2022-09-09T10:39:37;100658.97;;;18.86;80.73
61119;BME280;51448;51.660;5.824;2022-09-09T10:42:12;100648.78;;;18.78;81.09
61119;BME280;51448;51.660;5.824;2022-09-09T10:47:29;100656.81;;;18.64;81.51
61119;BME280;51448;51.660;5.824;2022-09-09T10:50:22;100653.59;;;18.59;82.29
61119;BME280;51448;51.660;5.824;2022-09-09T10:53:37;100663.69;;;18.54;81.58
61119;BME280;51448;51.660;5.824;2022-09-09T10:56:16;100654.19;;;18.49;81.03
61119;BME280;51448;51.660;5.824;2022-09-09T10:58:53;100662.38;;;18.46;81.64
61119;BME280;51448;51.660;5.824;2022-09-09T11:01:31;100655.34;;;18.45;82.49
61119;BME280;51448;51.660;5.824;2022-09-09T11:06:52;100663.47;;;18.29;83.78
61119;BME280;51448;51.660;5.824;2022-09-09T11:09:25;100668.59;;;18.18;84.07
61119;BME280;51448;51.660;5.824;2022-09-09T11:12:00;100666.78;;;18.04;84.44
61119;BME280;51448;51.660;5.824;2022-09-09T11:14:41;100670.97;;;17.94;85.25
61119;BME280;51448;51.660;5.824;2022-09-09T11:17:20;100677.78;;;17.84;86.35
61119;BME280;51448;51.660;5.824;2022-09-09T11:19:51;100688.22;;;17.73;87.04
61119;BME280;51448;51.660;5.824;2022-09-09T11:22:46;100682.41;;;17.66;87.33
61119;BME280;51448;51.660;5.824;2022-09-09T11:25:26;100687.22;;;17.59;88.41
61119;BME280;51448;51.660;5.824;2022-09-09T11:40:27;100669.56;;;17.58;90.45
61119;BME280;51448;51.660;5.824;2022-09-09T11:43:04;100673.91;;;17.59;91.37
61119;BME280;51448;51.660;5.824;2022-09-09T11:45:38;100671.47;;;17.56;91.01
61119;BME280;51448;51.660;5.824;2022-09-09T11:48:29;100666.13;;;17.56;91.80
61119;BME280;51448;51.660;5.824;2022-09-09T11:53:57;100663.13;;;17.77;92.32
61119;BME280;51448;51.660;5.824;2022-09-09T11:56:33;100655.88;;;17.95;92.75
61119;BME280;51448;51.660;5.824;2022-09-09T11:59:22;100662.41;;;18.18;92.50
61119;BME280;51448;51.660;5.824;2022-09-09T12:01:59;100654.69;;;18.42;92.39
61119;BME280;51448;51.660;5.824;2022-09-09T12:04:32;100659.69;;;18.61;92.74
61119;BME280;51448;51.660;5.824;2022-09-09T12:07:23;100653.34;;;18.76;91.42
61119;BME280;51448;51.660;5.824;2022-09-09T12:12:49;100647.88;;;18.79;90.14
61119;BME280;51448;51.660;5.824;2022-09-09T12:17:53;100644.59;;;18.74;89.52
61119;BME280;51448;51.660;5.824;2022-09-09T12:20:34;100645.66;;;18.72;90.18
61119;BME280;51448;51.660;5.824;2022-09-09T12:23:18;100657.38;;;18.69;89.90
61119;BME280;51448;51.660;5.824;2022-09-09T12:32:23;100647.91;;;18.50;89.76
61119;BME280;51448;51.660;5.824;2022-09-09T12:34:57;100650.88;;;18.46;89.67
61119;BME280;51448;51.660;5.824;2022-09-09T12:37:35;100642.97;;;18.44;89.21
61119;BME280;51448;51.660;5.824;2022-09-09T12:40:19;100634.78;;;18.47;89.26
61119;BME280;51448;51.660;5.824;2022-09-09T12:42:58;100645.63;;;18.59;89.61
61119;BME280;51448;51.660;5.824;2022-09-09T12:45:31;100639.09;;;18.77;90.07
61119;BME280;51448;51.660;5.824;2022-09-09T12:48:13;100635.34;;;18.94;89.58
61119;BME280;51448;51.660;5.824;2022-09-09T12:50:59;100638.78;;;19.09;89.88
61119;BME280;51448;51.660;5.824;2022-09-09T12:53:55;100639.53;;;19.11;88.67
61119;BME280;51448;51.660;5.824;2022-09-09T12:56:35;100628.59;;;19.16;88.68
61119;BME280;51448;51.660;5.824;2022-09-09T12:59:27;100632.84;;;19.18;89.10
61119;BME280;51448;51.660;5.824;2022-09-09T13:05:39;100633.94;;;19.16;87.43
61119;BME280;51448;51.660;5.824;2022-09-09T13:08:10;100626.03;;;19.14;88.08
61119;BME280;51448;51.660;5.824;2022-09-09T13:11:00;100618.13;;;19.13;87.47
61119;BME280;51448;51.660;5.824;2022-09-09T13:13:43;100614.69;;;19.10;87.00
61119;BME280;51448;51.660;5.824;2022-09-09T13:16:26;100618.34;;;19.09;87.39
61119;BME280;51448;51.660;5.824;2022-09-09T13:19:18;100615.97;;;19.05;87.89
61119;BME280;51448;51.660;5.824;2022-09-09T13:21:51;100609.13;;;19.01;87.64
61119;BME280;51448;51.660;5.824;2022-09-09T13:24:32;100612.00;;;18.98;87.08
61119;BME280;51448;51.660;5.824;2022-09-09T13:29:59;100602.28;;;18.97;87.53
61119;BME280;51448;51.660;5.824;2022-09-09T13:32:28;100607.84;;;18.94;88.07
61119;BME280;51448;51.660;5.824;2022-09-09T13:35:00;100605.38;;;18.90;88.21
61119;BME280;51448;51.660;5.824;2022-09-09T13:37:47;100604.75;;;18.87;87.99
61119;BME280;51448;51.660;5.824;2022-09-09T13:56:02;100568.25;;;18.33;89.85
61119;BME280;51448;51.660;5.824;2022-09-09T13:58:30;100608.78;;;18.24;90.04
61119;BME280;51448;51.660;5.824;2022-09-09T14:00:57;100608.34;;;18.17;90.43
61119;BME280;51448;51.660;5.824;2022-09-09T14:03:25;100604.16;;;18.13;91.09
61119;BME280;51448;51.660;5.824;2022-09-09T14:05:53;100595.97;;;18.16;91.01
61119;BME280;51448;51.660;5.824;2022-09-09T14:08:24;100605.16;;;18.25;91.50
61119;BME280;51448;51.660;5.824;2022-09-09T14:10:53;100598.41;;;18.34;90.84
61119;BME280;51448;51.660;5.824;2022-09-09T14:13:23;100598.66;;;18.43;91.39
61119;BME280;51448;51.660;5.824;2022-09-09T14:15:50;100601.69;;;18.52;91.35
61119;BME280;51448;51.660;5.824;2022-09-09T14:18:17;100596.22;;;18.67;91.55
61119;BME280;51448;51.660;5.824;2022-09-09T14:20:45;100599.91;;;18.79;92.11
61119;BME280;51448;51.660;5.824;2022-09-09T14:23:12;100605.69;;;18.86;91.57
61119;BME280;51448;51.660;5.824;2022-09-09T14:25:41;100594.84;;;18.89;90.19
61119;BME280;51448;51.660;5.824;2022-09-09T14:28:11;100597.28;;;18.92;89.54
61119;BME280;51448;51.660;5.824;2022-09-09T14:30:40;100595.47;;;18.93;89.59
61119;BME280;51448;51.660;5.824;2022-09-09T14:33:13;100600.78;;;18.93;89.22
61119;BME280;51448;51.660;5.824;2022-09-09T14:35:42;100597.94;;;18.96;89.20
61119;BME280;51448;51.660;5.824;2022-09-09T14:38:12;100595.19;;;18.97;88.69
61119;BME280;51448;51.660;5.824;2022-09-09T14:40:45;100596.56;;;19.03;89.12
61119;BME280;51448;51.660;5.824;2022-09-09T14:43:13;100589.31;;;19.05;88.85
61119;BME280;51448;51.660;5.824;2022-09-09T14:45:41;100587.19;;;19.10;88.80
61119;BME280;51448;51.660;5.824;2022-09-09T14:48:10;100594.03;;;19.14;88.58
61119;BME280;51448;51.660;5.824;2022-09-09T14:50:38;100595.53;;;19.18;87.55
61119;BME280;51448;51.660;5.824;2022-09-09T14:53:07;100591.78;;;19.21;87.80
61119;BME280;51448;51.660;5.824;2022-09-09T14:55:36;100594.78;;;19.42;88.36
61119;BME280;51448;51.660;5.824;2022-09-09T14:58:04;100593.00;;;19.68;88.49
61119;BME280;51448;51.660;5.824;2022-09-09T15:00:33;100587.13;;;19.88;88.20
61119;BME280;51448;51.660;5.824;2022-09-09T15:03:01;100584.00;;;20.07;87.11
61119;BME280;51448;51.660;5.824;2022-09-09T15:05:28;100576.09;;;20.19;86.38
61119;BME280;51448;51.660;5.824;2022-09-09T15:07:56;100586.66;;;20.20;84.87
61119;BME280;51448;51.660;5.824;2022-09-09T15:10:24;100589.19;;;20.22;84.37
61119;BME280;51448;51.660;5.824;2022-09-09T15:12:53;100582.50;;;20.16;83.07
61119;BME280;51448;51.660;5.824;2022-09-09T15:15:21;100578.06;;;20.04;82.33
61119;BME280;51448;51.660;5.824;2022-09-09T15:17:48;100574.44;;;19.92;82.56
61119;BME280;51448;51.660;5.824;2022-09-09T15:20:16;100581.28;;;19.83;82.83
61119;BME280;51448;51.660;5.824;2022-09-09T15:22:43;100580.97;;;19.75;82.87
61119;BME280;51448;51.660;5.824;2022-09-09T15:25:11;100571.75;;;19.66;83.15
61119;BME280;51448;51.660;5.824;2022-09-09T15:27:51;100573.91;;;19.61;83.94
61119;BME280;51448;51.660;5.824;2022-09-09T15:30:28;100572.50;;;19.56;83.70
61119;BME280;51448;51.660;5.824;2022-09-09T15:33:01;100572.84;;;19.51;83.56
61119;BME280;51448;51.660;5.824;2022-09-09T15:35:39;100574.97;;;19.46;83.40